Latest Weather Observations for Horsham AWS

IDV60801

Issued at 7:05 am EST Wednesday 23 July 2014 (issued every 30 minutes, with the page automatically refreshed every 10 minutes)

About weather observations | Map of weather stations | Latest weather observations for VIC | Other Formats
Station Details ID: 079100 Name: HORSHAM AERODROME Lat: -36.67 Lon: 142.17 Height: 133.8 m
Data from the previous 72 hours. | See also: Recent months at Horsham AWS
Date/Time
EST
Temp
°C
App
Temp
°C
Dew
Point
Rel
Hum
%
Delta-T
°C
Wind Press
QNH
hPa
Press
MSL
hPa
Rain
since 9 am
mm
Dir
 
Spd
km/h
Gust
km/h
Spd
kts
Gust
kts
23/07:00am -0.9 -3.0 -1.0 99 0.0 E 0 0 0 0 1022.9 - 0.0
23/06:30am -1.6 -3.8 -1.7 99 0.0 E 0 0 0 0 1022.7 - 0.0
23/06:00am -1.8 -4.0 -1.9 99 0.0 E 0 0 0 0 1022.7 1022.9 0.0
23/05:56am -1.7 -3.9 -1.8 99 0.0 CALM 0 0 0 0 1022.6 - 0.0
23/05:30am -1.9 -4.2 -2.0 99 -0.1 CALM 0 0 0 0 1022.4 - 0.0
23/05:23am -1.9 -4.2 -2.2 98 0.0 CALM 0 0 0 0 1022.4 - 0.0
23/05:00am -1.9 -4.2 -2.2 98 0.0 CALM 0 0 0 0 1022.3 - 0.0
23/04:30am -2.0 -4.3 -2.3 98 0.0 CALM 0 0 0 0 1022.6 - 0.0
23/04:00am -2.2 -4.5 -2.5 98 0.0 CALM 0 0 0 0 1022.5 - 0.0
23/03:30am -2.1 -5.5 -2.4 98 0.0 E 6 9 3 5 1022.8 - 0.0
23/03:00am -1.8 -5.8 -2.1 98 0.0 E 9 11 5 6 1023.1 1023.3 0.0
23/02:30am -2.1 -6.5 -2.4 98 0.0 E 11 13 6 7 1023.4 - 0.0
23/02:00am -1.7 -5.7 -2.0 98 0.0 ENE 9 9 5 5 1023.4 - 0.0
23/01:30am -1.1 -4.6 -1.4 98 0.1 E 7 9 4 5 1023.3 - 0.0
23/01:00am -1.2 -4.7 -1.5 98 0.0 ESE 7 11 4 6 1023.4 - 0.0
23/12:51am -1.1 -5.4 -1.4 98 0.1 ESE 11 13 6 7 1023.3 - 0.0
23/12:50am -1.0 -5.3 -1.3 98 0.1 ESE 11 13 6 7 1023.3 - 0.0
23/12:30am -0.9 -5.5 -1.2 98 0.1 SE 13 15 7 8 1023.5 - 0.0
23/12:00am -1.0 -4.9 -1.3 98 0.1 SE 9 11 5 6 1023.6 1023.8 0.0
 
Date/Time
EST
Temp
°C
App
Temp
°C
Dew
Point
Rel
Hum
%
Delta-T
°C
Wind Press
QNH
hPa
Press
MSL
hPa
Rain
since 9 am
mm
Dir
 
Spd
km/h
Gust
km/h
Spd
kts
Gust
kts
22/11:30pm -0.8 -3.3 -1.2 97 0.1 NNE 2 6 1 3 1024.0 - 0.0
22/11:27pm -0.9 -3.1 -1.3 97 0.1 CALM 0 6 0 3 1024.1 - 0.0
22/11:00pm -1.0 -3.9 -1.4 97 0.1 N 4 6 2 3 1024.2 - 0.0
22/10:30pm 1.2 -2.0 0.8 97 0.1 N 7 7 4 4 1024.1 - 0.0
22/10:00pm 1.6 -1.6 1.0 96 0.2 N 7 9 4 5 1024.2 - 0.0
22/09:30pm 2.9 0.1 2.3 96 0.2 NNW 6 9 3 5 1024.3 - 0.0
22/09:00pm 3.1 -0.6 2.5 96 0.2 N 11 15 6 8 1024.8 1025.0 0.0
22/08:30pm 2.4 -1.4 1.5 94 0.3 N 11 13 6 7 1024.9 - 0.0
22/08:00pm 3.1 0.3 2.1 93 0.4 N 6 7 3 4 1024.3 - 0.0
22/07:30pm 4.9 3.5 3.7 92 0.5 CALM 0 0 0 0 1024.2 - 0.0
22/07:00pm 5.0 3.6 3.3 89 0.7 CALM 0 0 0 0 1024.1 - 0.0
22/06:30pm 7.2 6.1 4.9 85 1.0 CALM 0 0 0 0 1024.0 - 0.0
22/06:00pm 8.2 7.1 5.3 82 1.3 WSW 0 0 0 0 1023.9 1024.1 0.0
22/05:30pm 9.8 8.9 6.2 78 1.7 CALM 0 0 0 0 1023.9 - 0.0
22/05:00pm 11.0 8.8 6.0 71 2.3 WNW 7 7 4 4 1023.8 - 0.0
22/04:30pm 11.7 10.6 5.3 65 3.0 CALM 0 6 0 3 1023.5 - 0.0
22/04:00pm 12.1 11.4 6.8 70 2.5 CALM 0 4 0 2 1023.4 - 0.0
22/03:30pm 11.5 10.6 6.2 70 2.5 CALM 0 0 0 0 1023.7 - 0.0
22/03:00pm 11.4 10.3 6.7 73 2.2 WNW 2 6 1 3 1023.7 1023.9 0.0
22/02:30pm 10.3 8.3 7.2 81 1.5 NNE 7 11 4 6 1024.0 - 0.0
22/02:00pm 9.0 7.1 7.6 91 0.7 N 7 13 4 7 1024.3 - 0.0
22/01:48pm 8.2 6.3 7.4 95 0.4 N 7 13 4 7 1024.4 - 0.0
22/01:30pm 8.3 6.1 7.9 97 0.2 N 9 13 5 7 1024.7 - 0.0
22/01:00pm 7.3 5.3 7.2 99 0.0 N 7 11 4 6 1025.3 - 0.0
22/12:30pm 6.3 4.1 6.2 99 0.0 N 7 11 4 6 1025.7 - 0.0
22/12:00pm 5.7 3.4 5.6 99 0.0 NE 7 11 4 6 1026.0 1026.3 0.0
22/11:30am 4.9 2.6 4.8 99 0.0 NE 6 9 3 5 1026.4 - 0.0
22/11:00am 4.4 2.4 4.3 99 0.0 NE 4 7 2 4 1026.7 - 0.0
22/10:30am 3.3 0.7 3.2 99 0.0 ENE 6 9 3 5 1026.9 - 0.0
22/10:00am 2.3 -0.5 2.2 99 0.0 E 6 9 3 5 1026.9 - 0.0
22/09:30am 1.4 -1.1 1.3 99 0.0 ESE 4 6 2 3 1027.0 - 0.0
22/09:00am 0.9 -1.7 0.8 99 0.0 ESE 4 6 2 3 1026.8 1027.1 0.6
22/08:30am 0.4 -1.5 0.3 99 0.0 CALM 0 0 0 0 1026.8 - 0.2
22/08:00am 0.1 -3.0 0.0 99 0.0 ESE 6 7 3 4 1026.3 - 0.2
22/07:30am 0.0 -3.3 -0.1 99 0.0 SSE 7 7 4 4 1025.9 - 0.0
22/07:00am 0.3 -1.7 0.2 99 0.0 CALM 0 0 0 0 1025.7 - 0.0
22/06:30am 0.4 -1.5 0.3 99 0.0 CALM 0 0 0 0 1025.4 - 0.0
22/06:00am 0.5 -1.4 0.4 99 0.0 CALM 0 0 0 0 1024.9 1025.1 0.0
22/05:30am 0.8 -1.1 0.7 99 0.0 CALM 0 0 0 0 1025.0 - 0.0
22/05:00am 1.0 -0.8 0.9 99 0.0 CALM 0 0 0 0 1025.1 - 0.0
22/04:30am 0.5 -1.8 0.4 99 0.0 SE 2 7 1 4 1024.9 - 0.0
22/04:00am 0.1 -2.3 0.0 99 0.0 E 2 6 1 3 1024.7 - 0.0
22/03:30am -0.2 -4.3 -0.3 99 0.0 E 11 13 6 7 1024.5 - 0.0
22/03:00am -1.0 -6.0 -1.1 99 0.0 E 15 17 8 9 1024.6 1024.8 0.0
22/02:30am -1.3 -5.6 -1.6 98 0.0 E 11 13 6 7 1024.7 - 0.0
22/02:00am -1.1 -6.1 -1.4 98 0.1 ESE 15 17 8 9 1024.7 - 0.0
22/01:30am -0.9 -5.5 -1.2 98 0.1 SE 13 15 7 8 1024.8 - 0.0
22/01:00am -0.5 -5.1 -0.8 98 0.1 ESE 13 13 7 7 1024.8 - 0.0
22/12:30am -0.3 -4.5 -0.6 98 0.1 E 11 11 6 6 1024.9 - 0.0
22/12:22am -0.1 -4.2 -0.4 98 0.1 ENE 11 13 6 7 1024.9 - 0.0
22/12:00am 0.9 -3.5 0.6 98 0.1 ENE 13 15 7 8 1024.8 1025.0 0.0
 
Date/Time
EST
Temp
°C
App
Temp
°C
Dew
Point
Rel
Hum
%
Delta-T
°C
Wind Press
QNH
hPa
Press
MSL
hPa
Rain
since 9 am
mm
Dir
 
Spd
km/h
Gust
km/h
Spd
kts
Gust
kts
21/11:30pm 1.7 -2.2 1.3 97 0.2 ENE 11 13 6 7 1024.9 - 0.0
21/11:00pm 1.8 -1.3 1.4 97 0.2 E 7 9 4 5 1025.1 - 0.0
21/10:30pm 1.4 -2.9 1.0 97 0.2 E 13 13 7 7 1024.9 - 0.0
21/10:00pm 3.1 -0.6 2.5 96 0.2 ENE 11 15 6 8 1024.9 - 0.0
21/09:30pm 3.7 1.1 3.1 96 0.2 ENE 6 7 3 4 1025.2 - 0.0
21/09:00pm 4.0 0.9 3.4 96 0.2 E 9 11 5 6 1025.1 1025.3 0.0
21/08:30pm 4.8 1.8 4.1 95 0.3 E 9 11 5 6 1024.8 - 0.0
21/08:00pm 4.8 1.0 4.1 95 0.3 E 13 15 7 8 1024.5 - 0.0
21/07:30pm 4.3 0.8 3.4 94 0.4 E 11 13 6 7 1024.5 - 0.0
21/07:00pm 4.5 0.2 3.5 93 0.4 E 15 17 8 9 1024.2 - 0.0
21/06:30pm 5.4 1.3 4.1 91 0.6 ENE 15 17 8 9 1023.9 - 0.0
21/06:00pm 6.3 1.9 4.6 89 0.7 E 17 19 9 10 1023.8 1024.0 0.0
21/05:30pm 7.9 4.3 5.2 83 1.2 ENE 13 13 7 7 1023.8 - 0.0
21/05:00pm 9.8 6.2 5.0 72 2.2 ENE 13 15 7 8 1023.7 - 0.0
21/04:30pm 10.6 7.8 5.2 69 2.5 ENE 9 15 5 8 1023.6 - 0.0
21/04:00pm 11.1 8.3 5.2 67 2.7 NE 9 13 5 7 1023.7 - 0.0
21/03:30pm 11.1 8.0 5.6 69 2.6 NE 11 17 6 9 1023.6 - 0.0
21/03:00pm 10.5 7.2 6.5 76 1.9 ENE 13 15 7 8 1023.5 1023.7 0.0
21/02:30pm 10.5 7.1 5.9 73 2.1 NNE 13 19 7 10 1023.6 - 0.0
21/02:00pm 10.5 6.8 6.3 75 2.0 NNE 15 19 8 10 1023.8 - 0.0
21/01:46pm 10.1 6.4 6.3 77 1.8 NE 15 19 8 10 1023.9 - 0.0
21/01:34pm 10.3 6.7 6.6 78 1.7 NE 15 20 8 11 1024.1 - 0.0
21/01:30pm 10.2 7.0 6.7 79 1.7 NNE 13 19 7 10 1024.2 - 0.0
21/01:00pm 9.4 5.7 6.3 81 1.4 NNE 15 20 8 11 1024.6 - 0.0
21/12:58pm 9.4 5.7 6.5 82 1.4 NNE 15 19 8 10 1024.6 - 0.0
21/12:30pm 9.1 5.4 6.4 83 1.3 NNE 15 20 8 11 1024.9 - 0.0
21/12:00pm 9.1 5.6 7.1 87 0.9 NE 15 20 8 11 1025.4 1025.6 0.0
21/11:57am 9.0 5.5 7.1 88 0.9 NE 15 20 8 11 1025.5 - 0.0
21/11:30am 8.0 4.0 6.8 92 0.6 NE 17 20 9 11 1025.8 - 0.0
21/11:00am 7.5 3.6 6.9 96 0.3 NE 17 20 9 11 1026.0 - 0.0
21/10:30am 6.6 2.5 6.3 98 0.1 ENE 17 22 9 12 1026.0 - 0.0
21/10:00am 5.7 1.5 5.6 99 0.0 ENE 17 20 9 11 1026.0 - 0.0
21/09:30am 4.8 1.1 4.7 99 0.0 ENE 13 17 7 9 1026.1 - 0.0
21/09:00am 3.2 -0.4 3.1 99 0.0 E 11 15 6 8 1025.8 1026.1 0.0
21/08:30am 0.9 -3.1 0.8 99 0.0 E 11 13 6 7 1025.8 - 0.0
21/08:00am 0.8 -2.4 0.7 99 0.0 ENE 7 9 4 5 1025.8 - 0.0
21/07:30am 0.2 -3.9 0.1 99 0.0 E 11 13 6 7 1025.6 - 0.0
21/07:00am 0.3 -3.0 0.0 98 0.1 E 7 11 4 6 1025.4 - 0.0
21/06:30am -0.3 -4.5 -0.6 98 0.1 E 11 15 6 8 1025.1 - 0.0
21/06:00am -0.6 -5.6 -0.9 98 0.1 E 15 17 8 9 1024.8 1025.0 0.0
21/05:30am -0.4 -5.3 -0.7 98 0.1 E 15 17 8 9 1024.9 - 0.0
21/05:00am -0.2 -5.1 -0.5 98 0.1 E 15 15 8 8 1024.8 - 0.0
21/04:30am 0.2 -5.4 -0.1 98 0.1 E 19 20 10 11 1024.7 - 0.0
21/04:00am -0.2 -4.0 -0.6 97 0.1 ENE 9 11 5 6 1024.9 - 0.0
21/03:30am 0.6 -3.0 0.3 98 0.1 NE 9 11 5 6 1025.2 - 0.0
21/03:00am 0.5 -3.2 0.1 97 0.1 N 9 9 5 5 1025.5 1025.8 0.0
21/02:30am 1.3 -0.9 0.9 97 0.2 NE 2 9 1 5 1025.5 - 0.0
21/02:00am 0.8 -1.9 0.4 97 0.1 NE 4 6 2 3 1025.6 - 0.0
21/01:30am 1.2 -1.0 0.8 97 0.1 ENE 2 7 1 4 1025.7 - 0.0
21/01:00am 0.8 -2.8 0.4 97 0.1 E 9 11 5 6 1025.8 - 0.0
21/12:30am 2.0 -1.1 1.6 97 0.2 E 7 9 4 5 1025.9 - 0.0
21/12:00am 2.2 -0.9 1.6 96 0.2 E 7 11 4 6 1026.2 1026.5 0.0
 
Date/Time
EST
Temp
°C
App
Temp
°C
Dew
Point
Rel
Hum
%
Delta-T
°C
Wind Press
QNH
hPa
Press
MSL
hPa
Rain
since 9 am
mm
Dir
 
Spd
km/h
Gust
km/h
Spd
kts
Gust
kts
20/11:30pm 1.5 -3.2 0.8 95 0.3 SE 15 17 8 9 1026.2 - 0.0
20/11:00pm 2.8 -1.0 1.9 94 0.4 NE 11 13 6 7 1026.2 - 0.0
20/10:30pm 3.2 -0.5 2.3 94 0.4 NNE 11 13 6 7 1026.3 - 0.0
20/10:00pm 3.3 -0.4 2.4 94 0.4 NE 11 15 6 8 1026.3 - 0.0
20/09:30pm 3.2 -1.7 2.3 94 0.4 ENE 17 19 9 10 1026.3 - 0.0
20/09:00pm 3.6 -0.8 2.6 93 0.4 ENE 15 17 8 9 1026.6 1026.9 0.0
20/08:30pm 4.3 0.3 3.1 92 0.5 NE 13 13 7 7 1026.8 - 0.0
20/08:00pm 4.6 1.4 3.3 91 0.5 ENE 9 11 5 6 1026.9 - 0.0
20/07:30pm 5.4 1.6 3.9 90 0.6 E 13 13 7 7 1026.6 - 0.0
20/07:00pm 5.9 2.2 4.4 90 0.6 E 13 15 7 8 1026.4 - 0.0
20/06:30pm 6.6 2.6 4.8 88 0.8 E 15 15 8 8 1026.1 - 0.0
20/06:00pm 8.1 5.0 5.7 85 1.1 E 11 13 6 7 1026.1 1026.4 0.0
20/05:30pm 8.4 6.2 5.5 82 1.3 ESE 6 7 3 4 1026.1 - 0.0
20/05:00pm 9.6 6.9 5.8 77 1.8 ENE 9 11 5 6 1026.2 - 0.0
20/04:30pm 11.6 9.5 5.9 68 2.7 E 6 9 3 5 1026.0 - 0.0
20/04:00pm 11.4 8.8 6.3 71 2.4 ESE 9 13 5 7 1026.0 - 0.0
20/03:30pm 11.6 9.6 6.1 69 2.6 ENE 6 11 3 6 1026.1 - 0.0
20/03:00pm 10.6 8.8 5.2 69 2.5 NNE 4 7 2 4 1026.3 1026.6 0.0
20/02:30pm 11.0 8.7 4.9 66 2.8 NW 6 11 3 6 1026.5 - 0.0
20/02:00pm 10.8 8.6 5.1 68 2.6 NNW 6 9 3 5 1026.8 - 0.0
20/01:30pm 10.8 9.4 5.6 70 2.4 NE 2 6 1 3 1027.2 - 0.0
20/01:00pm 10.5 8.2 5.5 71 2.3 NE 7 11 4 6 1027.8 - 0.0
20/12:30pm 10.5 8.8 6.1 74 2.1 SW 4 9 2 5 1028.3 - 0.0
20/12:00pm 11.1 9.2 6.5 73 2.2 NW 6 9 3 5 1028.6 1028.9 0.0
20/11:30am 9.9 7.9 6.2 78 1.7 WSW 6 7 3 4 1028.9 - 0.0
20/11:00am 8.8 7.7 7.1 89 0.8 S 2 7 1 4 1028.9 - 0.0
20/10:30am 7.9 5.9 7.1 95 0.4 SSW 7 9 4 5 1029.1 - 0.0
20/10:00am 6.6 4.4 6.3 98 0.1 SW 7 9 4 5 1029.2 - 0.0
20/09:30am 5.4 3.2 5.3 99 0.0 SSW 6 7 3 4 1029.1 - 0.0
20/09:00am 4.4 1.8 4.3 99 0.0 W 7 9 4 5 1029.0 1029.3 0.0
20/08:30am 3.5 1.3 3.4 99 0.0 SSW 4 6 2 3 1029.0 - 0.0
20/08:00am 3.4 0.2 3.3 99 0.0 W 9 13 5 7 1028.8 - 0.0
20/07:30am 2.9 0.2 2.8 99 0.0 WSW 6 11 3 6 1028.7 - 0.0

Other Formats:

Comma delimited format used in spreadsheet applications
http://www.bom.gov.au/fwo/IDV60801/IDV60801.95839.axf

JavaScript Object Notation format (JSON) in row-major order
http://www.bom.gov.au/fwo/IDV60801/IDV60801.95839.json